Time;durP1;ratioP1;P1;durP2;ratioP2;P2;SDS_P1;SDS_P2;PMS_P1;PMS_P2;Temp;Humidity;BMP_temperature;BMP_pressure;BME280_temperature;BME280_humidity;BME280_pressure;Samples;Min_cycle;Max_cycle;Signal;HPM_P1;HPM_P2
2022/03/20 00:00:30;;;;;;;18.20;12.75;;;;;;;;;;8146129;28;20039;-60
2022/03/20 00:04:30;;;;;;;21.83;12.93;;;;;;;;;;8145695;28;20028;-60
2022/03/20 00:08:31;;;;;;;23.30;13.55;;;;;;;;;;8146621;28;20035;-60
2022/03/20 00:12:31;;;;;;;21.75;13.00;;;;;;;;;;8146914;28;20125;-60
2022/03/20 00:16:31;;;;;;;20.25;14.07;;;;;;;;;;8146243;28;20347;-60
2022/03/20 00:20:35;;;;;;;21.90;13.27;;;;;;;;;;8146114;28;20400;-60
2022/03/20 00:24:35;;;;;;;20.40;12.77;;;;;;;;;;8147049;28;20062;-60
2022/03/20 00:28:35;;;;;;;21.35;12.80;;;;;;;;;;8148571;29;20489;-59
2022/03/20 00:32:36;;;;;;;20.92;13.48;;;;;;;;;;8144522;28;20081;-60
2022/03/20 00:36:36;;;;;;;19.63;12.88;;;;;;;;;;8147126;28;20030;-60
2022/03/20 00:40:36;;;;;;;23.90;13.38;;;;;;;;;;8145665;29;20137;-60
2022/03/20 00:44:37;;;;;;;17.60;12.13;;;;;;;;;;8146567;28;20221;-60
2022/03/20 00:48:37;;;;;;;17.13;12.30;;;;;;;;;;8145808;28;20078;-60
2022/03/20 00:52:37;;;;;;;21.83;13.00;;;;;;;;;;8146697;29;20055;-60
2022/03/20 00:56:37;;;;;;;21.48;13.07;;;;;;;;;;8145914;28;20040;-59
2022/03/20 01:00:38;;;;;;;20.02;13.00;;;;;;;;;;8145201;28;20046;-60
2022/03/20 01:04:38;;;;;;;21.27;12.63;;;;;;;;;;8144617;28;20034;-60
2022/03/20 01:08:38;;;;;;;20.55;13.05;;;;;;;;;;8145011;29;20160;-60
2022/03/20 01:12:39;;;;;;;20.42;12.43;;;;;;;;;;8146502;28;20491;-60
2022/03/20 01:16:39;;;;;;;18.05;12.27;;;;;;;;;;8144387;28;20047;-60
2022/03/20 01:20:39;;;;;;;19.98;12.70;;;;;;;;;;8143229;28;20027;-60
2022/03/20 01:24:39;;;;;;;18.95;12.25;;;;;;;;;;8144051;28;20023;-60
2022/03/20 01:28:39;;;;;;;19.42;12.45;;;;;;;;;;8143839;28;20460;-60
2022/03/20 01:32:40;;;;;;;18.33;12.13;;;;;;;;;;8141096;28;20031;-60
2022/03/20 01:36:40;;;;;;;21.67;12.27;;;;;;;;;;8143064;28;20302;-60
2022/03/20 01:40:40;;;;;;;19.63;11.65;;;;;;;;;;8144460;28;20058;-60
2022/03/20 01:44:40;;;;;;;19.75;11.63;;;;;;;;;;8143461;29;20027;-60
2022/03/20 01:48:41;;;;;;;16.70;11.57;;;;;;;;;;8144004;28;20047;-60
2022/03/20 01:52:42;;;;;;;17.60;11.55;;;;;;;;;;8144843;29;20023;-60
2022/03/20 01:56:44;;;;;;;18.83;11.27;;;;;;;;;;8149960;28;20050;-60
2022/03/20 02:00:44;;;;;;;16.30;10.80;;;;;;;;;;8152789;28;20044;-60
2022/03/20 02:04:44;;;;;;;17.10;11.82;;;;;;;;;;8154433;28;20041;-59
2022/03/20 02:08:44;;;;;;;21.38;11.93;;;;;;;;;;8155928;28;20031;-60
2022/03/20 02:12:45;;;;;;;19.02;11.82;;;;;;;;;;8154744;28;20035;-60
2022/03/20 02:16:45;;;;;;;20.17;12.60;;;;;;;;;;8154694;28;20872;-59
2022/03/20 02:20:46;;;;;;;17.33;11.82;;;;;;;;;;8153128;28;20019;-60
2022/03/20 02:24:49;;;;;;;21.58;11.88;;;;;;;;;;8156096;29;20070;-59
2022/03/20 02:28:49;;;;;;;20.70;11.63;;;;;;;;;;8155149;28;20058;-60
2022/03/20 02:32:51;;;;;;;16.20;10.98;;;;;;;;;;8156333;28;20130;-60
2022/03/20 02:36:52;;;;;;;19.73;11.75;;;;;;;;;;8153830;28;20500;-60
2022/03/20 02:40:54;;;;;;;18.70;11.35;;;;;;;;;;8152416;28;20487;-60
2022/03/20 02:45:03;;;;;;;16.80;10.75;;;;;;;;;;8154596;28;20058;-60
2022/03/20 02:49:06;;;;;;;19.02;11.45;;;;;;;;;;8154712;28;20043;-60
2022/03/20 02:53:14;;;;;;;19.73;12.15;;;;;;;;;;8154587;29;20059;-60
2022/03/20 02:57:14;;;;;;;17.75;11.52;;;;;;;;;;8154494;28;20083;-60
2022/03/20 03:01:16;;;;;;;18.88;11.50;;;;;;;;;;8153833;28;20067;-60
2022/03/20 03:05:18;;;;;;;19.00;11.35;;;;;;;;;;8153599;28;20031;-60
2022/03/20 03:13:38;;;;;;;18.77;10.82;;;;;;;;;;8149873;29;20114;-60
2022/03/20 03:17:38;;;;;;;19.50;10.60;;;;;;;;;;8148866;28;20288;-60
2022/03/20 03:21:38;;;;;;;19.85;11.93;;;;;;;;;;8147339;29;21014;-60
2022/03/20 03:25:40;;;;;;;18.50;11.68;;;;;;;;;;8150725;29;20035;-60
2022/03/20 03:29:40;;;;;;;18.95;11.13;;;;;;;;;;8149206;29;21413;-60
2022/03/20 03:38:00;;;;;;;20.13;11.85;;;;;;;;;;8149846;29;21104;-60
2022/03/20 03:42:01;;;;;;;23.58;13.77;;;;;;;;;;8148079;28;20430;-60
2022/03/20 03:46:01;;;;;;;23.65;12.18;;;;;;;;;;8150135;28;20040;-60
2022/03/20 03:50:01;;;;;;;16.58;11.07;;;;;;;;;;8148776;28;20020;-60
2022/03/20 03:54:01;;;;;;;16.47;10.53;;;;;;;;;;8146794;29;20034;-60
2022/03/20 03:58:03;;;;;;;17.55;11.20;;;;;;;;;;8148904;28;20321;-60
2022/03/20 04:02:04;;;;;;;18.25;11.55;;;;;;;;;;8146339;28;20640;-60
2022/03/20 04:06:04;;;;;;;21.67;12.27;;;;;;;;;;8148607;28;20067;-61
2022/03/20 04:10:05;;;;;;;17.77;11.30;;;;;;;;;;8146682;29;20035;-60
2022/03/20 04:14:05;;;;;;;18.60;10.88;;;;;;;;;;8148549;28;20051;-60
2022/03/20 04:18:05;;;;;;;13.48;9.38;;;;;;;;;;8147037;28;20062;-60
2022/03/20 04:22:05;;;;;;;24.38;10.40;;;;;;;;;;8144868;29;20488;-60
2022/03/20 04:26:06;;;;;;;15.38;9.75;;;;;;;;;;8147382;29;20110;-60
2022/03/20 04:30:06;;;;;;;17.65;11.13;;;;;;;;;;8145783;28;20039;-61
2022/03/20 04:34:07;;;;;;;17.23;10.57;;;;;;;;;;8146157;29;20256;-60
2022/03/20 04:38:07;;;;;;;17.80;10.73;;;;;;;;;;8147481;29;20031;-60
2022/03/20 04:42:09;;;;;;;17.13;9.85;;;;;;;;;;8149275;29;20023;-60
2022/03/20 04:46:09;;;;;;;15.63;10.70;;;;;;;;;;8145621;28;20569;-60
2022/03/20 04:58:47;;;;;;;19.58;11.80;;;;;;;;;;8147092;29;20395;-60
2022/03/20 05:02:48;;;;;;;20.65;10.77;;;;;;;;;;8144104;28;20150;-60
2022/03/20 05:06:48;;;;;;;19.13;11.40;;;;;;;;;;8146989;29;20031;-60
2022/03/20 05:15:08;;;;;;;17.98;11.60;;;;;;;;;;8145712;28;20147;-60
2022/03/20 05:19:08;;;;;;;21.45;11.90;;;;;;;;;;8143616;29;20015;-60
2022/03/20 05:23:09;;;;;;;17.55;10.75;;;;;;;;;;8146306;28;20055;-60
2022/03/20 05:27:09;;;;;;;19.40;10.88;;;;;;;;;;8145162;29;20065;-60
2022/03/20 05:31:11;;;;;;;19.55;12.15;;;;;;;;;;8143343;28;20039;-60
2022/03/20 05:35:11;;;;;;;21.20;13.25;;;;;;;;;;8145267;28;20030;-60
2022/03/20 05:39:11;;;;;;;21.55;12.20;;;;;;;;;;8143578;29;20027;-60
2022/03/20 05:43:11;;;;;;;24.30;14.07;;;;;;;;;;8146109;29;20298;-61
2022/03/20 05:47:12;;;;;;;22.63;12.82;;;;;;;;;;8145264;28;20294;-60
2022/03/20 05:51:15;;;;;;;20.60;13.05;;;;;;;;;;8142136;29;20841;-60
2022/03/20 05:55:15;;;;;;;26.65;13.57;;;;;;;;;;8143465;28;20039;-60
2022/03/20 05:59:16;;;;;;;20.80;12.80;;;;;;;;;;8144483;28;20032;-60
2022/03/20 06:03:17;;;;;;;24.38;14.00;;;;;;;;;;8142549;28;20055;-60
2022/03/20 06:07:17;;;;;;;26.02;13.50;;;;;;;;;;8145517;28;20023;-60
2022/03/20 06:11:17;;;;;;;26.58;14.40;;;;;;;;;;8142533;28;20339;-60
2022/03/20 06:15:17;;;;;;;25.98;13.63;;;;;;;;;;8144224;28;20050;-60
2022/03/20 06:19:18;;;;;;;33.55;14.88;;;;;;;;;;8144614;29;20019;-60
2022/03/20 06:23:18;;;;;;;23.70;12.73;;;;;;;;;;8142759;29;20044;-60
2022/03/20 06:27:18;;;;;;;30.50;16.00;;;;;;;;;;8143544;29;20039;-60
2022/03/20 06:31:19;;;;;;;27.20;13.68;;;;;;;;;;8144979;28;20267;-60
2022/03/20 06:35:19;;;;;;;22.25;12.13;;;;;;;;;;8145579;28;20070;-60
2022/03/20 06:39:19;;;;;;;19.33;12.80;;;;;;;;;;8144932;28;20109;-60
2022/03/20 06:43:20;;;;;;;44.20;22.52;;;;;;;;;;8148703;29;20269;-60
2022/03/20 06:47:23;;;;;;;34.35;16.63;;;;;;;;;;8149754;28;20180;-60
2022/03/20 06:51:23;;;;;;;35.63;16.35;;;;;;;;;;8148073;28;20760;-60
2022/03/20 06:55:24;;;;;;;33.08;15.88;;;;;;;;;;8148866;28;20093;-60
2022/03/20 06:59:24;;;;;;;24.65;14.10;;;;;;;;;;8148547;29;20204;-60
2022/03/20 07:03:25;;;;;;;37.07;19.23;;;;;;;;;;8148444;28;20071;-60
2022/03/20 07:07:25;;;;;;;28.17;16.17;;;;;;;;;;8148447;28;20283;-60
2022/03/20 07:11:32;;;;;;;32.10;16.33;;;;;;;;;;8147583;28;20429;-60
2022/03/20 07:15:34;;;;;;;32.15;16.83;;;;;;;;;;8150167;28;20722;-60
2022/03/20 07:19:39;;;;;;;28.33;15.50;;;;;;;;;;8146277;28;20035;-61
2022/03/20 07:23:39;;;;;;;32.92;16.05;;;;;;;;;;8148873;29;20109;-61
2022/03/20 07:32:04;;;;;;;26.25;15.02;;;;;;;;;;8148098;28;20063;-61
2022/03/20 07:36:04;;;;;;;27.00;16.38;;;;;;;;;;8152599;28;20670;-61
2022/03/20 07:40:05;;;;;;;28.25;16.08;;;;;;;;;;8147321;28;20369;-61
2022/03/20 07:44:05;;;;;;;26.77;15.80;;;;;;;;;;8151033;28;20223;-61
2022/03/20 07:48:07;;;;;;;29.23;19.23;;;;;;;;;;8145961;28;20602;-61
2022/03/20 07:52:07;;;;;;;23.35;16.17;;;;;;;;;;8146349;28;20031;-61
2022/03/20 07:56:07;;;;;;;29.52;18.20;;;;;;;;;;8146657;28;20381;-61
2022/03/20 08:00:08;;;;;;;30.58;18.08;;;;;;;;;;8149555;28;20171;-61
2022/03/20 08:04:08;;;;;;;26.45;16.73;;;;;;;;;;8147369;29;20985;-61
2022/03/20 08:08:14;;;;;;;31.30;17.85;;;;;;;;;;8150094;28;20568;-61
2022/03/20 08:12:14;;;;;;;30.10;18.45;;;;;;;;;;8148242;28;20598;-61
2022/03/20 08:16:16;;;;;;;27.40;17.50;;;;;;;;;;8146947;28;20046;-61
2022/03/20 08:20:17;;;;;;;26.05;17.20;;;;;;;;;;8147438;28;20031;-61
2022/03/20 08:24:17;;;;;;;25.75;17.40;;;;;;;;;;8146844;28;20639;-61
2022/03/20 08:28:18;;;;;;;28.23;17.33;;;;;;;;;;8143453;28;20035;-61
2022/03/20 08:32:19;;;;;;;28.67;17.40;;;;;;;;;;8145183;28;20043;-61
2022/03/20 08:36:20;;;;;;;27.95;17.63;;;;;;;;;;8147444;28;20287;-61
2022/03/20 08:40:21;;;;;;;25.83;17.55;;;;;;;;;;8146415;28;20102;-61
2022/03/20 08:44:25;;;;;;;29.02;18.08;;;;;;;;;;8147020;28;20023;-61
2022/03/20 08:48:26;;;;;;;;;;;;;;;;;;8144558;28;20122;-61
2022/03/20 08:52:26;;;;;;;26.98;17.25;;;;;;;;;;8145482;28;20703;-61
2022/03/20 08:56:26;;;;;;;31.48;19.77;;;;;;;;;;8144948;28;20397;-61
2022/03/20 09:00:26;;;;;;;28.85;19.02;;;;;;;;;;8145336;28;20352;-61
2022/03/20 09:04:27;;;;;;;24.58;16.80;;;;;;;;;;8147522;28;20038;-61
2022/03/20 09:08:27;;;;;;;30.25;19.23;;;;;;;;;;8142402;28;20640;-61
2022/03/20 09:12:27;;;;;;;26.75;17.13;;;;;;;;;;8146267;28;20055;-61
2022/03/20 09:20:46;;;;;;;27.95;17.65;;;;;;;;;;8143181;29;21000;-61
2022/03/20 09:24:46;;;;;;;24.27;16.80;;;;;;;;;;8145633;28;20886;-63
2022/03/20 09:28:47;;;;;;;24.40;17.30;;;;;;;;;;8144315;28;20113;-61
2022/03/20 09:32:48;;;;;;;28.00;17.85;;;;;;;;;;8144514;28;20503;-61
2022/03/20 09:36:48;;;;;;;28.77;17.75;;;;;;;;;;8147434;28;20125;-61
2022/03/20 09:40:49;;;;;;;26.83;18.67;;;;;;;;;;8141975;28;20031;-65
2022/03/20 09:44:50;;;;;;;25.42;18.13;;;;;;;;;;8144760;29;20422;-61
2022/03/20 09:48:52;;;;;;;28.02;18.25;;;;;;;;;;8140562;28;21001;-61
2022/03/20 09:52:52;;;;;;;34.13;18.60;;;;;;;;;;8144261;29;20026;-61
2022/03/20 09:56:53;;;;;;;27.05;19.20;;;;;;;;;;8145341;28;20027;-61
2022/03/20 10:00:54;;;;;;;38.85;20.80;;;;;;;;;;8146071;28;20036;-61
2022/03/20 10:04:59;;;;;;;34.67;21.67;;;;;;;;;;8144546;29;20019;-61
2022/03/20 10:08:59;;;;;;;25.98;18.27;;;;;;;;;;8147872;29;20818;-61
2022/03/20 10:13:00;;;;;;;33.17;20.80;;;;;;;;;;8145481;29;20066;-61
2022/03/20 10:17:14;;;;;;;29.48;19.38;;;;;;;;;;8146219;28;20497;-61
2022/03/20 10:21:19;;;;;;;32.33;22.85;;;;;;;;;;8149603;28;20224;-61
2022/03/20 10:25:21;;;;;;;28.10;19.08;;;;;;;;;;8149754;28;20453;-61
2022/03/20 10:29:21;;;;;;;26.52;18.88;;;;;;;;;;8151620;29;20016;-61
2022/03/20 10:33:21;;;;;;;28.33;19.13;;;;;;;;;;8148228;28;20326;-61
2022/03/20 10:37:42;;;;;;;28.92;19.25;;;;;;;;;;8148477;28;20078;-61
2022/03/20 10:41:45;;;;;;;31.67;19.90;;;;;;;;;;8149548;29;20473;-61
2022/03/20 10:45:49;;;;;;;29.40;18.47;;;;;;;;;;8151183;28;20074;-61
2022/03/20 10:50:04;;;;;;;24.55;14.45;;;;;;;;;;8150535;28;20592;-61
2022/03/20 10:54:04;;;;;;;18.27;13.13;;;;;;;;;;8149911;28;20109;-61
2022/03/20 10:58:20;;;;;;;18.98;13.32;;;;;;;;;;8148740;29;20855;-61
2022/03/20 11:02:21;;;;;;;20.98;12.70;;;;;;;;;;8149250;28;20385;-61
2022/03/20 11:06:22;;;;;;;18.98;11.90;;;;;;;;;;8152650;28;20029;-61
2022/03/20 11:10:23;;;;;;;21.35;11.77;;;;;;;;;;8149856;29;20024;-61
2022/03/20 11:14:24;;;;;;;16.60;11.47;;;;;;;;;;8149739;28;20028;-61
2022/03/20 11:18:25;;;;;;;18.30;10.63;;;;;;;;;;8147877;28;20366;-61
2022/03/20 11:22:26;;;;;;;14.60;10.98;;;;;;;;;;8149376;28;20026;-62
2022/03/20 11:26:27;;;;;;;18.55;9.98;;;;;;;;;;8149762;29;20039;-61
2022/03/20 11:30:28;;;;;;;23.08;10.23;;;;;;;;;;8146409;28;20324;-61
2022/03/20 11:34:29;;;;;;;15.50;9.40;;;;;;;;;;8147156;29;20043;-62
2022/03/20 11:38:31;;;;;;;12.75;9.07;;;;;;;;;;8149458;29;20107;-61
2022/03/20 11:42:31;;;;;;;23.15;11.80;;;;;;;;;;8147154;28;20573;-62
2022/03/20 11:46:33;;;;;;;20.92;10.90;;;;;;;;;;8149026;28;20070;-62
2022/03/20 11:50:40;;;;;;;14.38;9.85;;;;;;;;;;8147616;29;20028;-62
2022/03/20 11:54:40;;;;;;;17.92;8.95;;;;;;;;;;8144938;29;20082;-61
2022/03/20 11:58:41;;;;;;;14.70;9.27;;;;;;;;;;8150020;28;20027;-62
2022/03/20 12:02:41;;;;;;;14.93;9.30;;;;;;;;;;8147390;28;20031;-62
2022/03/20 12:07:03;;;;;;;14.13;9.10;;;;;;;;;;8148295;28;20023;-62
2022/03/20 12:11:06;;;;;;;17.95;10.10;;;;;;;;;;8145617;29;20023;-61
2022/03/20 12:15:08;;;;;;;17.38;9.60;;;;;;;;;;8147844;28;20697;-62
2022/03/20 12:19:11;;;;;;;15.38;9.70;;;;;;;;;;8149505;29;20050;-62
2022/03/20 12:23:31;;;;;;;18.27;10.02;;;;;;;;;;8147827;28;20588;-62
2022/03/20 12:27:34;;;;;;;16.85;11.57;;;;;;;;;;8144833;28;20414;-62
2022/03/20 12:31:53;;;;;;;21.25;13.38;;;;;;;;;;8144909;28;20075;-62
2022/03/20 12:35:54;;;;;;;23.10;15.18;;;;;;;;;;8147041;28;20272;-62
2022/03/20 12:39:55;;;;;;;14.48;9.40;;;;;;;;;;8145252;28;20101;-62
2022/03/20 12:43:59;;;;;;;19.92;14.20;;;;;;;;;;8146701;29;20352;-62
2022/03/20 12:48:01;;;;;;;23.95;13.90;;;;;;;;;;8144009;28;20039;-62
2022/03/20 12:52:01;;;;;;;20.08;14.40;;;;;;;;;;8146367;29;20079;-62
2022/03/20 12:56:02;;;;;;;24.83;13.30;;;;;;;;;;8148219;28;20564;-62
2022/03/20 13:00:13;;;;;;;19.55;12.85;;;;;;;;;;8143551;28;20142;-63
2022/03/20 13:04:14;;;;;;;17.75;11.27;;;;;;;;;;8146634;29;20480;-61
2022/03/20 13:08:25;;;;;;;15.70;10.10;;;;;;;;;;8145711;29;20170;-61
2022/03/20 13:12:25;;;;;;;17.70;10.70;;;;;;;;;;8145212;29;20434;-62
2022/03/20 13:16:26;;;;;;;15.63;9.45;;;;;;;;;;8147957;28;20126;-62
2022/03/20 13:20:28;;;;;;;16.48;9.88;;;;;;;;;;8144841;28;20484;-62
2022/03/20 13:24:49;;;;;;;19.35;14.23;;;;;;;;;;8145154;28;20457;-62
2022/03/20 13:28:49;;;;;;;21.08;14.35;;;;;;;;;;8146323;28;20560;-61
2022/03/20 13:32:54;;;;;;;19.65;14.15;;;;;;;;;;8145746;28;20402;-61
2022/03/20 13:37:02;;;;;;;20.70;13.77;;;;;;;;;;8145847;29;20459;-62
2022/03/20 13:41:03;;;;;;;21.55;14.93;;;;;;;;;;8145878;28;20030;-62
2022/03/20 13:45:04;;;;;;;21.55;13.95;;;;;;;;;;8142939;28;20027;-62
2022/03/20 13:49:06;;;;;;;19.58;12.88;;;;;;;;;;8145930;29;20710;-62
2022/03/20 13:53:06;;;;;;;19.27;12.50;;;;;;;;;;8144770;28;20465;-61
2022/03/20 13:57:11;;;;;;;18.95;12.27;;;;;;;;;;8145212;28;20027;-61
2022/03/20 14:01:11;;;;;;;18.55;12.02;;;;;;;;;;8143211;28;20070;-61
2022/03/20 14:05:12;;;;;;;18.63;11.65;;;;;;;;;;8144225;28;20433;-61
2022/03/20 14:09:13;;;;;;;20.67;11.45;;;;;;;;;;8143843;28;20437;-61
2022/03/20 14:13:27;;;;;;;18.20;11.10;;;;;;;;;;8145852;28;20237;-61
2022/03/20 14:17:38;;;;;;;18.25;11.75;;;;;;;;;;8142104;28;20054;-61
2022/03/20 14:21:53;;;;;;;17.95;12.10;;;;;;;;;;8143385;29;20068;-61
2022/03/20 14:25:53;;;;;;;22.75;12.82;;;;;;;;;;8140944;29;20445;-61
2022/03/20 14:43:08;;;;;;;25.08;14.68;;;;;;;;;;8139415;29;20062;-61
2022/03/20 14:47:08;;;;;;;18.73;13.32;;;;;;;;;;8139339;28;20381;-61
2022/03/20 14:51:08;;;;;;;19.02;12.55;;;;;;;;;;8138955;28;20210;-61
2022/03/20 14:55:11;;;;;;;22.25;13.05;;;;;;;;;;8140602;28;20058;-61
2022/03/20 14:59:12;;;;;;;18.88;12.50;;;;;;;;;;8138501;29;20088;-61
2022/03/20 15:03:12;;;;;;;26.88;15.82;;;;;;;;;;8140579;28;20464;-61
2022/03/20 15:07:13;;;;;;;24.30;12.93;;;;;;;;;;8146154;29;20088;-61
2022/03/20 15:11:26;;;;;;;18.35;12.45;;;;;;;;;;8146190;29;20051;-61
2022/03/20 15:15:26;;;;;;;20.65;13.45;;;;;;;;;;8145584;28;20047;-61
2022/03/20 15:19:26;;;;;;;20.35;12.15;;;;;;;;;;8144659;29;20457;-61
2022/03/20 15:23:26;;;;;;;25.70;14.45;;;;;;;;;;8144296;28;20039;-61
2022/03/20 15:27:27;;;;;;;30.17;14.90;;;;;;;;;;8140305;28;20024;-61
2022/03/20 15:31:27;;;;;;;28.42;15.10;;;;;;;;;;8143282;28;20937;-61
2022/03/20 15:35:27;;;;;;;30.35;16.13;;;;;;;;;;8145298;29;20110;-61
2022/03/20 15:39:28;;;;;;;25.17;14.30;;;;;;;;;;8141337;29;20046;-61
2022/03/20 15:43:28;;;;;;;23.73;14.10;;;;;;;;;;8139551;29;20361;-62
2022/03/20 15:47:29;;;;;;;17.90;13.05;;;;;;;;;;8143302;28;20257;-61
2022/03/20 15:51:29;;;;;;;20.60;14.65;;;;;;;;;;8144117;28;20600;-61
2022/03/20 15:55:29;;;;;;;29.63;18.45;;;;;;;;;;8143658;28;20035;-61
2022/03/20 15:59:31;;;;;;;26.55;17.27;;;;;;;;;;8144633;29;20015;-61
2022/03/20 16:03:31;;;;;;;24.50;15.15;;;;;;;;;;8143337;28;20126;-61
2022/03/20 16:07:31;;;;;;;21.27;13.25;;;;;;;;;;8141802;28;20062;-61
2022/03/20 16:11:33;;;;;;;22.47;12.03;;;;;;;;;;8143930;28;20023;-61
2022/03/20 16:15:37;;;;;;;17.75;10.95;;;;;;;;;;8141504;28;20299;-61
2022/03/20 16:19:37;;;;;;;20.73;12.10;;;;;;;;;;8143752;28;20071;-61
2022/03/20 16:32:15;;;;;;;15.48;10.02;;;;;;;;;;8140732;28;20119;-61
2022/03/20 16:36:17;;;;;;;16.60;10.25;;;;;;;;;;8143455;28;20618;-61
2022/03/20 16:40:17;;;;;;;16.63;9.77;;;;;;;;;;8140646;28;20027;-61
2022/03/20 16:44:18;;;;;;;16.60;10.20;;;;;;;;;;8143070;29;20429;-61
2022/03/20 16:48:21;;;;;;;15.70;10.15;;;;;;;;;;8140845;28;20051;-61
2022/03/20 16:52:21;;;;;;;18.10;10.02;;;;;;;;;;8137782;28;20031;-61
2022/03/20 16:56:21;;;;;;;15.68;10.38;;;;;;;;;;8142842;29;20130;-61
2022/03/20 17:00:22;;;;;;;13.55;9.43;;;;;;;;;;8140534;28;20043;-61
2022/03/20 17:04:22;;;;;;;17.70;10.23;;;;;;;;;;8139994;29;20023;-61
2022/03/20 17:08:22;;;;;;;17.90;10.50;;;;;;;;;;8142422;28;20491;-61
2022/03/20 17:12:24;;;;;;;16.20;9.98;;;;;;;;;;8141190;28;20411;-61
2022/03/20 17:16:24;;;;;;;15.85;10.18;;;;;;;;;;8141148;28;20568;-61
2022/03/20 17:20:25;;;;;;;20.30;11.73;;;;;;;;;;8141586;29;20821;-61
2022/03/20 17:24:25;;;;;;;30.63;15.73;;;;;;;;;;8140277;29;20534;-61
2022/03/20 17:28:25;;;;;;;23.85;12.38;;;;;;;;;;8141388;28;20374;-62
2022/03/20 17:32:26;;;;;;;15.95;11.05;;;;;;;;;;8140567;28;20039;-61
2022/03/20 17:36:26;;;;;;;18.95;11.27;;;;;;;;;;8141115;28;20358;-61
2022/03/20 17:40:27;;;;;;;17.15;11.30;;;;;;;;;;8139730;28;20027;-61
2022/03/20 17:44:27;;;;;;;16.33;10.60;;;;;;;;;;8137741;29;20035;-61
2022/03/20 17:48:31;;;;;;;22.17;14.07;;;;;;;;;;8141003;28;20146;-61
2022/03/20 17:52:31;;;;;;;27.00;15.05;;;;;;;;;;8140324;29;20650;-61
2022/03/20 17:56:31;;;;;;;22.05;12.68;;;;;;;;;;8140125;28;20508;-61
2022/03/20 18:00:32;;;;;;;24.42;13.07;;;;;;;;;;8139609;28;20032;-61
2022/03/20 18:08:51;;;;;;;17.17;10.75;;;;;;;;;;8138544;29;20239;-60
2022/03/20 18:12:51;;;;;;;15.70;11.57;;;;;;;;;;8140203;29;20445;-61
2022/03/20 18:16:51;;;;;;;16.30;10.57;;;;;;;;;;8137383;28;20050;-60
2022/03/20 18:20:52;;;;;;;17.73;10.35;;;;;;;;;;8142984;28;20393;-61
2022/03/20 18:24:53;;;;;;;17.33;11.52;;;;;;;;;;8140264;29;20015;-60
2022/03/20 18:28:53;;;;;;;18.60;11.10;;;;;;;;;;8137691;29;20405;-60
2022/03/20 18:32:54;;;;;;;23.25;13.32;;;;;;;;;;8139646;28;20537;-61
2022/03/20 18:36:55;;;;;;;21.80;12.35;;;;;;;;;;8139237;29;20039;-61
2022/03/20 18:40:55;;;;;;;22.38;11.95;;;;;;;;;;8143574;28;20405;-60
2022/03/20 18:44:55;;;;;;;21.10;13.13;;;;;;;;;;8147150;28;20060;-61
2022/03/20 18:48:55;;;;;;;19.30;12.50;;;;;;;;;;8145430;28;20047;-60
2022/03/20 18:52:55;;;;;;;17.70;12.68;;;;;;;;;;8144931;29;20731;-61
2022/03/20 18:56:56;;;;;;;20.70;12.32;;;;;;;;;;8145344;28;20086;-60
2022/03/20 19:00:56;;;;;;;16.80;11.18;;;;;;;;;;8143991;28;20029;-60
2022/03/20 19:04:56;;;;;;;19.33;11.65;;;;;;;;;;8145598;28;20045;-60
2022/03/20 19:08:56;;;;;;;19.53;11.93;;;;;;;;;;8144754;29;20078;-60
2022/03/20 19:12:57;;;;;;;20.05;11.13;;;;;;;;;;8144952;28;20369;-60
2022/03/20 19:16:57;;;;;;;19.42;11.00;;;;;;;;;;8143184;28;20048;-60
2022/03/20 19:20:57;;;;;;;18.33;11.13;;;;;;;;;;8144084;29;20719;-60
2022/03/20 19:24:57;;;;;;;16.08;10.95;;;;;;;;;;8143910;29;20283;-60
2022/03/20 19:28:58;;;;;;;15.40;10.52;;;;;;;;;;8144104;28;20053;-60
2022/03/20 19:32:58;;;;;;;16.42;11.95;;;;;;;;;;8144944;28;20114;-61
2022/03/20 19:41:17;;;;;;;20.50;11.65;;;;;;;;;;8142659;29;20357;-60
2022/03/20 19:45:17;;;;;;;17.85;11.45;;;;;;;;;;8144886;28;20386;-60
2022/03/20 19:49:18;;;;;;;19.98;12.10;;;;;;;;;;8143470;28;20142;-60
2022/03/20 19:53:18;;;;;;;18.77;11.45;;;;;;;;;;8143437;28;20028;-60
2022/03/20 19:57:19;;;;;;;19.33;10.70;;;;;;;;;;8144603;28;20046;-60
2022/03/20 20:01:19;;;;;;;22.95;10.82;;;;;;;;;;8142789;28;20038;-60
2022/03/20 20:05:19;;;;;;;18.25;10.73;;;;;;;;;;8145210;29;20612;-60
2022/03/20 20:09:20;;;;;;;16.65;10.48;;;;;;;;;;8143632;28;20445;-61
2022/03/20 20:17:39;;;;;;;23.02;11.45;;;;;;;;;;8140771;28;20130;-60
2022/03/20 20:21:39;;;;;;;24.88;12.18;;;;;;;;;;8140911;29;20082;-60
2022/03/20 20:25:39;;;;;;;18.58;11.60;;;;;;;;;;8143227;28;20548;-60
2022/03/20 20:29:40;;;;;;;21.40;12.52;;;;;;;;;;8144170;29;20038;-60
2022/03/20 20:33:40;;;;;;;24.13;11.85;;;;;;;;;;8142396;28;20027;-60
2022/03/20 20:37:41;;;;;;;25.63;12.60;;;;;;;;;;8145818;28;20539;-60
2022/03/20 20:41:41;;;;;;;17.92;11.75;;;;;;;;;;8147210;28;20040;-60
2022/03/20 20:45:41;;;;;;;20.33;11.77;;;;;;;;;;8143655;28;20520;-61
2022/03/20 20:49:42;;;;;;;18.08;11.73;;;;;;;;;;8142831;28;20618;-60
2022/03/20 20:53:42;;;;;;;21.08;11.95;;;;;;;;;;8144383;28;20027;-61
2022/03/20 20:57:42;;;;;;;26.83;13.48;;;;;;;;;;8145263;28;20029;-60
2022/03/20 21:01:43;;;;;;;25.63;15.23;;;;;;;;;;8135835;28;20028;-60
2022/03/20 21:05:43;;;;;;;25.35;14.85;;;;;;;;;;8145761;28;20034;-60
2022/03/20 21:14:03;;;;;;;37.97;17.70;;;;;;;;;;8144844;28;20074;-60
2022/03/20 21:18:03;;;;;;;34.95;16.23;;;;;;;;;;8144148;28;20039;-60
2022/03/20 21:22:04;;;;;;;31.42;17.02;;;;;;;;;;8145672;28;20038;-61
2022/03/20 21:26:04;;;;;;;31.33;15.18;;;;;;;;;;8142455;29;20015;-60
2022/03/20 21:30:06;;;;;;;27.92;14.15;;;;;;;;;;8143758;28;20019;-60
2022/03/20 21:34:06;;;;;;;20.85;11.32;;;;;;;;;;8142256;28;20605;-60
2022/03/20 21:38:10;;;;;;;27.58;13.55;;;;;;;;;;8145937;28;20015;-60
2022/03/20 21:42:10;;;;;;;23.00;13.03;;;;;;;;;;8142404;29;20031;-61
2022/03/20 21:46:13;;;;;;;21.73;12.93;;;;;;;;;;8143846;28;20554;-61
2022/03/20 21:50:13;;;;;;;16.33;11.20;;;;;;;;;;8139436;28;20207;-60
2022/03/20 21:54:14;;;;;;;17.90;12.27;;;;;;;;;;8144259;28;20053;-60
2022/03/20 21:58:15;;;;;;;29.55;16.40;;;;;;;;;;8143071;28;20267;-60
2022/03/20 22:02:15;;;;;;;23.10;13.93;;;;;;;;;;8147298;28;20386;-60
2022/03/20 22:06:15;;;;;;;20.40;12.07;;;;;;;;;;8143810;28;20059;-60
2022/03/20 22:10:16;;;;;;;22.25;12.95;;;;;;;;;;8143212;28;20033;-60
2022/03/20 22:14:18;;;;;;;18.83;12.27;;;;;;;;;;8149203;28;20735;-61
2022/03/20 22:18:18;;;;;;;19.05;12.02;;;;;;;;;;8150634;28;20039;-60
2022/03/20 22:22:20;;;;;;;19.42;12.40;;;;;;;;;;8150615;28;20143;-60
2022/03/20 22:26:20;;;;;;;17.90;11.48;;;;;;;;;;8151560;29;20031;-60
2022/03/20 22:30:21;;;;;;;18.77;12.65;;;;;;;;;;8148797;28;21279;-61
2022/03/20 22:34:21;;;;;;;22.23;13.32;;;;;;;;;;8151117;28;20082;-60
2022/03/20 22:38:26;;;;;;;20.95;11.82;;;;;;;;;;8150090;28;20047;-60
2022/03/20 22:42:26;;;;;;;18.40;11.32;;;;;;;;;;8149996;28;20034;-60
2022/03/20 22:46:27;;;;;;;18.27;11.57;;;;;;;;;;8149103;28;20062;-60
2022/03/20 22:50:28;;;;;;;18.65;11.35;;;;;;;;;;8147984;29;20348;-61
2022/03/20 22:54:28;;;;;;;18.23;12.23;;;;;;;;;;8149563;28;20668;-60
2022/03/20 22:58:29;;;;;;;17.30;11.82;;;;;;;;;;8152231;28;20214;-60
2022/03/20 23:02:29;;;;;;;18.48;11.07;;;;;;;;;;8148728;28;20928;-60
2022/03/20 23:06:32;;;;;;;15.23;10.73;;;;;;;;;;8150431;28;20042;-60
2022/03/20 23:10:32;;;;;;;15.75;10.18;;;;;;;;;;8149405;28;20031;-60
2022/03/20 23:14:32;;;;;;;17.08;11.32;;;;;;;;;;8148910;28;20053;-60
2022/03/20 23:18:34;;;;;;;15.95;10.38;;;;;;;;;;8147627;28;20498;-60
2022/03/20 23:22:35;;;;;;;16.25;10.63;;;;;;;;;;8147257;28;20036;-60
2022/03/20 23:26:36;;;;;;;19.05;11.63;;;;;;;;;;8147616;29;21103;-60
2022/03/20 23:30:37;;;;;;;17.10;10.82;;;;;;;;;;8149381;28;20885;-60
2022/03/20 23:34:38;;;;;;;17.13;11.13;;;;;;;;;;8149344;28;20043;-60
2022/03/20 23:38:38;;;;;;;19.02;11.65;;;;;;;;;;8148523;28;20485;-60
2022/03/20 23:46:57;;;;;;;15.98;11.32;;;;;;;;;;8150301;28;20183;-60
2022/03/20 23:50:58;;;;;;;13.67;10.00;;;;;;;;;;8149957;28;20028;-61
2022/03/20 23:54:58;;;;;;;14.33;9.90;;;;;;;;;;8150762;28;20290;-60
2022/03/20 23:58:58;;;;;;;16.77;10.95;;;;;;;;;;8148650;28;20422;-60
